This is the latest recevied weather packets stored in our database for station/object IV3IYL-13. If no packets are shown the sender has not sent any weather packets the latest 10 day(s).
| Time | Temp. | Humidity | Pressure | Rain* | Wind** | Luminosity | Snow |
|---|---|---|---|---|---|---|---|
| 1777738870 | 23.89° C | 30% | 1019.3 hPa | - | - | - | - |
| 1777733470 | 25.56° C | 29% | 1020.1 hPa | - | - | - | - |
| 1777720269 | 21.67° C | 34% | 1022.9 hPa | - | - | - | - |
| 1777718469 | 21.11° C | 35% | 1023.4 hPa | - | - | - | - |
| 1777714869 | 18.89° C | 40% | 1024.1 hPa | - | - | - | - |
| 1777714269 | 18.33° C | 42% | 1024.2 hPa | - | - | - | - |
| 1777710669 | 17.22° C | 48% | 1024.8 hPa | - | - | - | - |
| 1777705268 | 13.89° C | 70% | 1025.4 hPa | - | - | - | - |
| 1777702868 | 12.22° C | 77% | 1025.6 hPa | - | - | - | - |
| 1777698068 | 8.89° C | 92% | 1025.7 hPa | - | - | - | - |
| 1777696868 | 8.33° C | 91% | 1025.7 hPa | - | - | - | - |
| 1777695668 | 8.33° C | 92% | 1025.7 hPa | - | - | - | - |
| 1777693868 | 8.33° C | 89% | 1025.4 hPa | - | - | - | - |
| 1777689667 | 10° C | 78% | 1025.7 hPa | - | - | - | - |
| 1777686067 | 10° C | 77% | 1025.9 hPa | - | - | - | - |
| 1777683682 | 10° C | 79% | 1025.8 hPa | - | - | - | - |
| 1777680082 | 11.11° C | 74% | 1025.9 hPa | - | - | - | - |
| 1777678267 | 12.22° C | 65% | 1025.8 hPa | - | - | - | - |
| 1777673466 | 12.78° C | 57% | 1025.6 hPa | - | - | - | - |
| 1777667497 | 15.56° C | 38% | 1025 hPa | - | - | - | - |
| 1777660866 | 17.22° C | 32% | 1024 hPa | - | - | - | - |
| 1777657296 | 18.89° C | 29% | 1023.5 hPa | - | - | - | - |
| 1777656081 | 20° C | 29% | 1023.3 hPa | - | - | - | - |
| 1777653065 | 21.11° C | 27% | 1023.5 hPa | - | - | - | - |
| 1777650065 | 21.67° C | 26% | 1023.8 hPa | - | - | - | - |
* Rain since midnight (hover to see other rain measurements)
** Current wind speed in m/s (hover to see current wind gust speed)